Time;durP1;ratioP1;P1;durP2;ratioP2;P2;SDS_P1;SDS_P2;PMS_P1;PMS_P2;Temp;Humidity;BMP_temperature;BMP_pressure;BME280_temperature;BME280_humidity;BME280_pressure;Samples;Min_cycle;Max_cycle;Signal;HPM_P1;HPM_P2
2021/12/09 00:00:58;;;;;;;13.27;4.88;;;;;;;1.22;91.02;100184.06;5039540;28;20028;-82
2021/12/09 00:03:24;;;;;;;17.13;4.97;;;;;;;1.16;90.80;100178.81;5022459;28;20029;-83
2021/12/09 00:05:49;;;;;;;18.35;5.30;;;;;;;1.22;90.88;100197.97;5038317;28;20344;-82
2021/12/09 00:08:15;;;;;;;11.68;4.63;;;;;;;1.21;90.98;100198.88;5041283;28;20048;-82
2021/12/09 00:10:41;;;;;;;15.52;5.50;;;;;;;1.19;91.25;100189.28;5033520;28;20089;-83
2021/12/09 00:13:07;;;;;;;10.13;5.10;;;;;;;1.19;91.42;100184.94;5040550;28;20461;-82
2021/12/09 00:15:33;;;;;;;19.67;5.95;;;;;;;1.18;91.32;100179.69;5032947;28;20436;-82
2021/12/09 00:17:59;;;;;;;12.70;4.97;;;;;;;1.18;91.51;100183.16;5045011;28;20032;-82
2021/12/09 00:20:24;;;;;;;11.55;5.05;;;;;;;1.11;90.85;100181.38;5037738;28;20190;-82
2021/12/09 00:22:50;;;;;;;11.27;5.13;;;;;;;1.15;91.47;100195.34;5038493;28;20033;-82
2021/12/09 00:25:16;;;;;;;11.60;4.72;;;;;;;1.17;90.96;100199.69;5031869;28;20422;-82
2021/12/09 00:27:42;;;;;;;17.20;5.20;;;;;;;1.13;91.03;100184.00;5013666;28;20033;-82
2021/12/09 00:30:09;;;;;;;16.67;5.53;;;;;;;1.10;90.88;100190.09;5029832;28;20374;-82
2021/12/09 00:32:35;;;;;;;11.95;4.75;;;;;;;1.13;91.08;100187.50;5029692;28;20320;-82
2021/12/09 00:35:03;;;;;;;18.88;5.88;;;;;;;1.12;91.89;100192.72;5030216;28;20033;-83
2021/12/09 00:37:36;;;;;;;10.00;4.93;;;;;;;1.10;91.51;100186.63;5030269;28;20037;-82
2021/12/09 00:40:04;;;;;;;11.45;4.65;;;;;;;1.08;91.68;100181.38;5029790;28;20033;-82
2021/12/09 00:42:29;;;;;;;14.77;5.40;;;;;;;1.07;92.00;100177.91;5013786;28;20037;-82
2021/12/09 00:44:56;;;;;;;20.35;6.15;;;;;;;1.18;91.80;100191.00;5029468;28;20061;-82
2021/12/09 00:47:23;;;;;;;11.32;5.28;;;;;;;1.16;91.84;100184.03;5013393;28;20108;-82
2021/12/09 00:49:49;;;;;;;14.55;5.20;;;;;;;1.16;91.19;100177.06;5013790;28;20037;-83
2021/12/09 00:52:16;;;;;;;11.80;5.78;;;;;;;1.19;91.54;100191.91;5030021;28;20393;-83
2021/12/09 00:54:42;;;;;;;9.77;4.68;;;;;;;1.17;91.65;100172.75;5029919;28;20120;-82
2021/12/09 00:57:10;;;;;;;11.85;5.57;;;;;;;1.26;91.64;100189.31;5013238;28;20029;-82
2021/12/09 00:59:35;;;;;;;14.13;5.22;;;;;;;1.21;91.71;100178.00;5016618;28;20064;-82
2021/12/09 01:02:01;;;;;;;15.07;6.13;;;;;;;1.22;91.50;100184.94;5049717;28;20067;-82
2021/12/09 01:04:27;;;;;;;11.63;4.75;;;;;;;1.23;91.57;100186.69;5049712;28;20044;-82
2021/12/09 01:06:52;;;;;;;13.40;4.93;;;;;;;1.30;91.20;100192.81;5033050;28;20036;-82
2021/12/09 01:09:18;;;;;;;18.17;6.10;;;;;;;1.37;91.48;100194.59;5051987;28;20040;-82
2021/12/09 01:11:44;;;;;;;15.65;5.85;;;;;;;1.36;91.71;100192.84;5036870;28;20369;-83
2021/12/09 01:14:10;;;;;;;14.60;4.95;;;;;;;1.40;90.92;100194.59;5036783;28;20047;-82
2021/12/09 01:16:36;;;;;;;12.13;5.15;;;;;;;1.34;91.21;100185.88;5053244;28;20096;-82
2021/12/09 01:19:03;;;;;;;12.98;4.88;;;;;;;1.39;91.40;100208.53;5053306;28;20439;-82
2021/12/09 01:21:29;;;;;;;12.38;5.60;;;;;;;1.37;90.68;100193.72;5036367;28;20082;-82
2021/12/09 01:29:28;;;;;;;12.90;5.35;;;;;;;1.32;90.66;100203.25;5548191;22;20219;-79
2021/12/09 01:31:59;;;;;;;13.05;4.60;;;;;;;1.32;90.98;100211.09;5532141;23;20066;-82
2021/12/09 01:37:27;;;;;;;10.65;4.88;;;;;;;1.24;90.90;100200.63;5348318;23;20060;-80
2021/12/09 01:39:53;;;;;;;16.58;5.10;;;;;;;1.23;90.79;100214.50;4882062;29;20050;-82
2021/12/09 01:42:20;;;;;;;19.85;5.60;;;;;;;1.21;90.61;100208.41;4897856;29;20063;-83
2021/12/09 01:44:45;;;;;;;16.23;5.63;;;;;;;1.25;90.56;100208.44;4867266;29;20044;-82
2021/12/09 01:47:11;;;;;;;13.45;5.00;;;;;;;1.24;90.96;100209.31;4882108;29;20445;-82
2021/12/09 01:49:36;;;;;;;15.38;5.45;;;;;;;1.21;91.37;100206.69;4897448;29;20040;-82
2021/12/09 01:52:04;;;;;;;10.23;4.95;;;;;;;1.21;90.89;100206.69;4881896;29;20039;-82
2021/12/09 01:54:29;;;;;;;15.68;5.65;;;;;;;1.12;91.30;100200.53;4897473;29;20054;-83
2021/12/09 01:56:55;;;;;;;9.02;4.80;;;;;;;1.14;91.00;100204.91;4881748;29;20028;-83
2021/12/09 01:59:20;;;;;;;9.63;4.43;;;;;;;1.11;91.25;100210.06;4881721;29;20052;-82
2021/12/09 02:01:46;;;;;;;12.13;5.30;;;;;;;1.01;91.29;100203.06;4881904;29;20100;-83
2021/12/09 02:04:12;;;;;;;15.20;5.25;;;;;;;1.06;91.63;100209.16;4881660;29;20100;-82
2021/12/09 02:06:41;;;;;;;10.95;4.80;;;;;;;1.04;91.29;100210.94;4881732;29;20032;-83
2021/12/09 02:09:12;;;;;;;14.02;5.20;;;;;;;1.01;91.11;100205.66;4897108;29;20044;-83
2021/12/09 02:11:39;;;;;;;11.70;4.90;;;;;;;1.00;91.50;100204.78;4881572;29;20040;-83
2021/12/09 02:14:05;;;;;;;17.55;5.53;;;;;;;0.98;91.46;100203.03;4897118;29;20048;-83
2021/12/09 02:16:31;;;;;;;5.15;2.95;;;;;;;0.99;91.32;100190.03;4881192;29;20472;-83
2021/12/09 02:18:58;;;;;;;13.05;5.30;;;;;;;0.93;91.17;100192.56;4896917;29;20036;-82
2021/12/09 02:21:26;;;;;;;18.08;5.05;;;;;;;0.94;91.74;100183.91;4880548;29;20114;-83
2021/12/09 02:23:54;;;;;;;15.43;5.15;;;;;;;0.91;91.88;100189.09;4896740;29;20025;-83
2021/12/09 02:26:23;;;;;;;12.05;5.40;;;;;;;0.88;91.41;100191.69;4896942;29;20464;-83
2021/12/09 02:28:50;;;;;;;10.30;4.70;;;;;;;0.86;91.81;100196.00;4896806;29;20048;-83
2021/12/09 02:31:16;;;;;;;14.05;5.30;;;;;;;0.84;91.82;100197.72;4880931;29;20397;-83
2021/12/09 02:33:42;;;;;;;10.27;4.45;;;;;;;0.80;91.63;100190.75;4896510;29;20366;-83
2021/12/09 02:36:08;;;;;;;14.38;5.18;;;;;;;0.89;91.51;100195.16;4880857;29;20051;-83
2021/12/09 02:38:41;;;;;;;11.75;5.18;;;;;;;0.86;91.97;100194.25;4896334;29;20111;-83
2021/12/09 02:41:09;;;;;;;12.32;4.20;;;;;;;0.85;91.69;100191.66;4896435;29;20048;-82
2021/12/09 02:43:35;;;;;;;15.05;5.07;;;;;;;0.90;92.13;100203.00;4896632;29;20047;-82
2021/12/09 02:46:01;;;;;;;10.38;4.53;;;;;;;0.96;91.35;100196.94;4865414;29;20037;-83
2021/12/09 02:48:26;;;;;;;10.38;5.00;;;;;;;0.87;91.62;100197.75;4880604;29;20036;-83
2021/12/09 02:50:53;;;;;;;13.77;5.40;;;;;;;0.83;92.04;100202.06;4880447;29;20238;-83
2021/12/09 02:53:19;;;;;;;13.43;5.25;;;;;;;0.79;91.86;100196.81;4881029;29;20461;-83
2021/12/09 02:55:45;;;;;;;15.85;5.25;;;;;;;0.84;91.82;100198.63;4880538;29;20116;-83
2021/12/09 02:58:12;;;;;;;11.43;4.75;;;;;;;0.82;92.10;100208.16;4896448;29;20394;-83
2021/12/09 03:01:00;;;;;;;13.32;4.78;;;;;;;0.81;91.65;100208.13;4866447;29;20045;-83
2021/12/09 03:03:27;;;;;;;14.10;4.88;;;;;;;0.76;91.37;100213.31;4843564;29;20136;-83
2021/12/09 03:05:54;;;;;;;11.88;5.10;;;;;;;0.72;91.67;100214.16;4843576;29;20025;-83
2021/12/09 03:08:32;;;;;;;11.63;4.93;;;;;;;0.66;91.86;100208.00;4859150;29;20042;-83
2021/12/09 03:10:57;;;;;;;16.48;4.85;;;;;;;0.67;91.43;100228.88;4843383;29;20037;-83
2021/12/09 03:13:23;;;;;;;10.38;4.80;;;;;;;0.63;91.77;100212.34;4860255;29;20116;-83
2021/12/09 03:15:48;;;;;;;13.20;6.25;;;;;;;0.66;92.33;100224.50;4858816;29;20075;-83
2021/12/09 03:18:14;;;;;;;12.20;4.85;;;;;;;0.62;91.84;100223.63;4859127;29;20537;-83
2021/12/09 03:20:41;;;;;;;13.90;4.95;;;;;;;0.66;92.18;100237.53;4843569;29;20044;-83
2021/12/09 03:23:07;;;;;;;10.63;5.60;;;;;;;0.62;92.08;100238.41;4859199;29;20032;-83
2021/12/09 03:25:32;;;;;;;13.60;4.30;;;;;;;0.56;91.56;100238.31;4858701;29;20045;-83
2021/12/09 03:27:58;;;;;;;17.23;4.75;;;;;;;0.56;92.22;100233.97;4858352;29;20485;-83
2021/12/09 03:30:24;;;;;;;13.20;5.00;;;;;;;0.52;92.11;100232.22;4860072;29;20041;-83
2021/12/09 03:32:50;;;;;;;11.80;4.55;;;;;;;0.56;92.02;100239.19;4858072;29;20058;-83
2021/12/09 03:35:15;;;;;;;13.18;4.70;;;;;;;0.53;92.46;100249.59;4858624;29;20061;-83
2021/12/09 03:37:43;;;;;;;13.95;4.80;;;;;;;0.46;92.52;100220.88;4858104;29;20050;-83
2021/12/09 03:40:11;;;;;;;13.20;4.43;;;;;;;0.46;92.21;100232.16;4858496;29;20124;-83
2021/12/09 03:42:37;;;;;;;11.38;4.97;;;;;;;0.47;92.01;100243.44;4858576;29;20518;-83
2021/12/09 03:45:04;;;;;;;13.57;4.70;;;;;;;0.45;92.31;100240.84;4858497;29;20072;-83
2021/12/09 03:47:30;;;;;;;13.15;5.15;;;;;;;0.48;92.49;100238.25;4843245;29;20491;-82
2021/12/09 03:49:56;;;;;;;16.38;4.68;;;;;;;0.53;92.81;100251.34;4843118;29;20181;-82
2021/12/09 03:52:22;;;;;;;11.65;4.43;;;;;;;0.50;92.73;100253.91;4858302;29;20109;-83
2021/12/09 03:54:48;;;;;;;11.73;4.25;;;;;;;0.54;92.41;100253.06;4858437;29;20042;-83
2021/12/09 03:57:15;;;;;;;12.90;4.57;;;;;;;0.49;92.54;100252.16;4859635;29;20033;-83
2021/12/09 03:59:42;;;;;;;11.98;4.80;;;;;;;0.50;92.25;100248.72;4843573;29;20129;-83
2021/12/09 04:02:08;;;;;;;11.90;4.55;;;;;;;0.55;92.26;100249.63;4858435;29;20090;-83
2021/12/09 04:04:35;;;;;;;16.63;5.07;;;;;;;0.50;92.07;100244.38;4859594;29;20395;-83
2021/12/09 04:07:00;;;;;;;12.20;4.88;;;;;;;0.45;92.47;100245.19;4858632;29;20025;-82
2021/12/09 04:09:27;;;;;;;12.50;4.60;;;;;;;0.47;92.53;100235.63;4843079;29;20515;-83
2021/12/09 04:11:53;;;;;;;15.32;4.88;;;;;;;0.50;92.31;100248.72;4873760;29;20108;-83
2021/12/09 04:14:20;;;;;;;16.52;4.90;;;;;;;0.48;92.17;100238.25;4858592;29;20192;-83
2021/12/09 04:16:46;;;;;;;10.90;4.68;;;;;;;0.52;92.58;100239.16;4858395;29;20033;-83
2021/12/09 04:19:12;;;;;;;9.40;4.07;;;;;;;0.44;92.31;100236.47;4873742;29;20442;-83
2021/12/09 04:21:39;;;;;;;9.20;4.07;;;;;;;0.52;92.17;100233.94;4857815;29;20025;-83
2021/12/09 04:24:08;;;;;;;10.68;4.32;;;;;;;0.51;92.30;100248.69;4858190;29;20043;-83
2021/12/09 04:26:39;;;;;;;13.07;4.72;;;;;;;0.53;92.29;100248.72;4857958;29;20154;-83
2021/12/09 04:29:08;;;;;;;8.55;3.47;;;;;;;0.54;92.08;100247.84;4858067;29;20048;-83
2021/12/09 04:31:34;;;;;;;11.10;4.13;;;;;;;0.50;92.17;100251.31;4857917;29;20033;-83
2021/12/09 04:34:00;;;;;;;9.80;3.95;;;;;;;0.58;91.95;100262.66;4858568;29;20057;-83
2021/12/09 04:36:26;;;;;;;14.13;4.35;;;;;;;0.50;92.01;100251.31;4858098;29;20089;-83
2021/12/09 04:38:53;;;;;;;15.48;5.07;;;;;;;0.48;92.22;100253.88;4857815;29;20121;-83
2021/12/09 04:41:19;;;;;;;13.70;5.00;;;;;;;0.43;91.92;100261.66;4857606;29;20493;-83
2021/12/09 04:43:45;;;;;;;9.82;4.47;;;;;;;0.47;92.15;100270.41;4859441;29;20048;-83
2021/12/09 04:46:11;;;;;;;13.13;4.28;;;;;;;0.41;92.28;100259.91;4861551;29;20037;-83
2021/12/09 04:48:37;;;;;;;10.68;3.70;;;;;;;0.42;92.20;100264.22;4861389;29;20037;-83
2021/12/09 04:51:03;;;;;;;8.60;3.88;;;;;;;0.48;92.08;100259.09;4861229;29;20046;-83
2021/12/09 04:53:28;;;;;;;13.35;4.30;;;;;;;0.41;92.17;100257.28;4861514;29;20148;-83
2021/12/09 04:55:54;;;;;;;12.75;4.03;;;;;;;0.43;92.50;100260.78;4861219;29;20029;-83
2021/12/09 04:58:20;;;;;;;13.45;4.85;;;;;;;0.42;92.41;100262.53;4861290;29;20045;-83
2021/12/09 05:00:47;;;;;;;14.85;4.50;;;;;;;0.37;92.54;100252.91;4846009;29;20116;-83
2021/12/09 05:03:13;;;;;;;12.07;4.03;;;;;;;0.37;92.41;100253.78;4861082;29;20060;-83
2021/12/09 05:05:42;;;;;;;15.70;4.60;;;;;;;0.36;92.69;100256.38;4861129;29;20430;-83
2021/12/09 05:08:12;;;;;;;12.02;4.40;;;;;;;0.32;92.67;100246.78;4860952;29;20113;-83
2021/12/09 05:13:19;;;;;;;11.32;3.58;;;;;;;0.35;92.64;100263.31;4861198;29;20129;-83
2021/12/09 05:15:46;;;;;;;9.82;3.78;;;;;;;0.30;92.60;100264.13;4876426;29;20319;-83
2021/12/09 05:18:13;;;;;;;6.50;3.50;;;;;;;0.30;92.32;100269.34;4860930;29;20128;-83
2021/12/09 05:20:38;;;;;;;12.93;4.75;;;;;;;0.26;92.73;100271.03;4860998;29;20453;-83
2021/12/09 05:23:05;;;;;;;12.63;4.22;;;;;;;0.26;92.92;100281.44;4862092;29;20109;-83
2021/12/09 05:25:31;;;;;;;14.48;3.80;;;;;;;0.25;92.90;100277.09;4860640;29;20062;-83
2021/12/09 05:27:56;;;;;;;15.88;4.20;;;;;;;0.26;92.99;100275.38;4845322;29;20116;-83
2021/12/09 05:30:25;;;;;;;8.75;4.18;;;;;;;0.23;93.11;100278.81;4845564;29;20376;-83
2021/12/09 05:32:51;;;;;;;11.82;4.10;;;;;;;0.24;92.72;100285.75;4875767;29;20411;-83
2021/12/09 05:35:18;;;;;;;10.35;3.85;;;;;;;0.20;93.02;100276.19;4860664;29;20109;-83
2021/12/09 05:37:44;;;;;;;10.02;4.05;;;;;;;0.17;92.77;100266.59;4856385;29;20085;-83
2021/12/09 05:40:12;;;;;;;10.48;4.30;;;;;;;0.18;92.93;100278.75;4860720;29;20037;-83
2021/12/09 05:42:38;;;;;;;7.82;3.58;;;;;;;0.17;93.21;100274.41;4846020;29;20426;-83
2021/12/09 05:45:04;;;;;;;6.95;2.97;;;;;;;0.16;93.37;100275.25;4860508;29;20116;-83
2021/12/09 05:47:30;;;;;;;10.90;3.67;;;;;;;0.23;93.40;100283.16;4860750;29;20049;-83
2021/12/09 05:49:56;;;;;;;10.15;4.05;;;;;;;0.31;93.06;100290.19;4860211;29;20029;-83
2021/12/09 05:52:22;;;;;;;8.43;3.92;;;;;;;0.29;92.70;100289.28;4860262;29;20097;-83
2021/12/09 05:54:48;;;;;;;7.88;3.63;;;;;;;0.26;93.15;100294.47;4844700;29;20034;-83
2021/12/09 05:57:14;;;;;;;8.73;3.90;;;;;;;0.34;92.75;100297.16;4861625;29;20045;-83
2021/12/09 05:59:41;;;;;;;19.23;4.57;;;;;;;0.30;92.83;100291.06;4861380;29;20034;-83
2021/12/09 06:02:10;;;;;;;13.80;3.90;;;;;;;0.29;93.12;100291.03;4859892;29;20394;-83
2021/12/09 06:04:36;;;;;;;8.57;3.75;;;;;;;0.41;92.77;100298.97;4859939;29;20021;-83
2021/12/09 06:07:02;;;;;;;14.70;4.78;;;;;;;0.34;92.75;100294.53;4861646;29;20053;-83
2021/12/09 06:09:28;;;;;;;14.70;4.35;;;;;;;0.31;92.94;100295.38;4859983;29;20151;-83
2021/12/09 06:11:54;;;;;;;13.82;4.07;;;;;;;0.34;93.14;100290.22;4844469;29;20166;-83
2021/12/09 06:14:19;;;;;;;15.38;4.40;;;;;;;0.28;92.66;100294.50;4844939;29;20081;-83
2021/12/09 06:16:45;;;;;;;10.52;3.58;;;;;;;0.19;93.00;100280.50;4859881;29;20045;-83
2021/12/09 06:19:11;;;;;;;10.95;4.25;;;;;;;0.19;92.79;100285.69;4859837;29;20498;-83
2021/12/09 06:21:36;;;;;;;11.68;4.35;;;;;;;0.19;92.94;100290.91;4859834;29;20053;-83
2021/12/09 06:24:03;;;;;;;14.80;4.72;;;;;;;0.17;92.89;100294.34;4859632;29;20038;-83
2021/12/09 06:26:30;;;;;;;13.38;4.35;;;;;;;0.14;92.92;100289.97;4859814;29;20057;-83
2021/12/09 06:28:56;;;;;;;12.68;4.38;;;;;;;0.14;93.38;100295.19;4875108;29;20351;-83
2021/12/09 06:31:22;;;;;;;16.55;4.43;;;;;;;0.10;93.35;100288.22;4859507;29;20120;-83
2021/12/09 06:33:50;;;;;;;9.35;4.25;;;;;;;0.06;93.49;100282.97;4886806;29;20063;-83
2021/12/09 06:36:16;;;;;;;11.25;4.10;;;;;;;0.08;93.57;100283.84;4896878;29;20096;-83
2021/12/09 06:38:42;;;;;;;11.70;3.80;;;;;;;0.09;93.70;100294.25;4881411;29;20386;-83
2021/12/09 06:41:08;;;;;;;13.75;4.82;;;;;;;0.06;93.67;100288.16;4897644;29;20036;-83
2021/12/09 06:43:37;;;;;;;10.55;3.70;;;;;;;0.09;93.69;100301.22;4881299;29;20056;-83
2021/12/09 06:46:04;;;;;;;11.55;4.95;;;;;;;0.09;93.73;100298.59;4881455;29;20115;-83
2021/12/09 06:48:30;;;;;;;15.85;4.10;;;;;;;0.11;93.73;100305.56;4896438;29;20028;-83
2021/12/09 06:50:55;;;;;;;14.13;4.30;;;;;;;0.09;93.90;100301.22;4896566;29;20513;-83
2021/12/09 06:53:21;;;;;;;15.60;4.45;;;;;;;0.11;93.76;100308.19;4880668;29;20076;-83
2021/12/09 06:55:46;;;;;;;14.75;4.43;;;;;;;0.14;94.08;100317.75;4896995;29;20527;-83
2021/12/09 06:58:12;;;;;;;16.10;3.92;;;;;;;0.18;93.51;100322.16;4896357;29;20127;-83
2021/12/09 07:00:46;;;;;;;10.07;4.38;;;;;;;0.11;93.54;100308.19;4880756;29;20120;-83
2021/12/09 07:03:12;;;;;;;12.48;4.20;;;;;;;0.18;93.88;100316.94;4896749;29;20056;-83
2021/12/09 07:05:38;;;;;;;10.38;5.05;;;;;;;0.07;93.62;100300.31;4880231;29;20043;-83
2021/12/09 07:08:04;;;;;;;13.18;5.05;;;;;;;0.06;93.87;100309.84;4880915;29;20115;-83
2021/12/09 07:10:31;;;;;;;13.02;4.07;;;;;;;0.03;93.31;100306.34;4880892;29;20477;-83
2021/12/09 07:12:57;;;;;;;12.60;5.22;;;;;;;0.04;93.70;100311.56;4895080;29;20033;-83
2021/12/09 07:15:23;;;;;;;9.02;4.20;;;;;;;-0.02;93.76;100304.56;4862321;29;20119;-83
2021/12/09 07:17:49;;;;;;;11.38;4.82;;;;;;;0.06;93.67;100314.19;4862468;29;20095;-83
2021/12/09 07:20:17;;;;;;;10.65;4.45;;;;;;;0.02;93.98;100307.19;4862152;29;20453;-83
2021/12/09 07:22:46;;;;;;;16.13;4.32;;;;;;;0.00;93.96;100307.19;4877686;29;20029;-85
2021/12/09 07:25:12;;;;;;;12.95;4.43;;;;;;;0.04;94.09;100328.91;4877789;29;20044;-85
2021/12/09 07:27:37;;;;;;;13.38;4.78;;;;;;;-0.02;94.35;100308.91;4878412;29;20416;-85
2021/12/09 07:30:08;;;;;;;7.05;3.47;;;;;;;0.04;94.41;100323.72;4877051;29;20064;-85
2021/12/09 07:32:34;;;;;;;13.95;4.63;;;;;;;0.05;94.41;100317.63;4861129;29;20041;-85
2021/12/09 07:35:01;;;;;;;10.95;4.50;;;;;;;0.05;94.29;100331.56;4861903;29;20400;-85
2021/12/09 07:37:27;;;;;;;10.95;4.80;;;;;;;0.04;94.06;100327.19;4877537;29;20108;-85
2021/12/09 07:39:53;;;;;;;10.52;4.53;;;;;;;0.02;94.41;100326.28;4876788;29;20501;-85
2021/12/09 07:42:18;;;;;;;9.05;3.83;;;;;;;0.04;94.06;100335.00;4843815;29;20081;-85
2021/12/09 07:44:44;;;;;;;13.95;4.63;;;;;;;0.05;94.15;100338.47;4877072;29;20032;-84
2021/12/09 07:47:10;;;;;;;10.05;4.57;;;;;;;0.07;94.24;100339.38;4876981;29;20045;-85
2021/12/09 07:49:36;;;;;;;12.00;4.55;;;;;;;0.05;94.43;100330.66;4861744;29;20045;-85
2021/12/09 07:52:04;;;;;;;6.80;4.05;;;;;;;0.06;94.40;100337.63;4876796;29;20504;-85
2021/12/09 07:54:30;;;;;;;11.80;4.82;;;;;;;0.11;93.88;100330.75;4861876;29;20066;-86
2021/12/09 07:56:55;;;;;;;13.75;5.28;;;;;;;0.12;94.25;100327.28;4876959;29;20047;-86
2021/12/09 07:59:21;;;;;;;16.42;4.90;;;;;;;0.10;94.08;100327.28;4861235;29;20032;-86
2021/12/09 08:01:46;;;;;;;13.52;5.03;;;;;;;0.14;94.14;100328.19;4845304;29;20041;-86
2021/12/09 08:04:12;;;;;;;18.00;4.70;;;;;;;0.14;94.38;100333.38;4860862;29;20064;-86
2021/12/09 08:06:38;;;;;;;14.65;4.45;;;;;;;0.15;94.38;100332.53;4877199;29;20044;-85
2021/12/09 08:09:05;;;;;;;16.27;5.30;;;;;;;0.16;94.27;100337.75;4860513;29;20037;-85
2021/12/09 08:11:33;;;;;;;23.05;4.28;;;;;;;0.18;94.35;100343.84;4844221;29;20048;-85
2021/12/09 08:13:59;;;;;;;17.48;4.78;;;;;;;0.20;94.61;100354.31;4845609;29;20051;-85
2021/12/09 08:16:25;;;;;;;15.35;5.45;;;;;;;0.22;94.42;100349.97;4859888;29;20119;-85
2021/12/09 08:18:53;;;;;;;11.27;5.20;;;;;;;0.23;94.55;100348.25;4859576;29;20167;-85
2021/12/09 08:21:24;;;;;;;16.83;4.85;;;;;;;0.27;94.49;100355.22;4875709;29;20025;-86
2021/12/09 08:23:51;;;;;;;9.40;4.88;;;;;;;0.32;94.64;100356.16;4875758;29;20470;-85
2021/12/09 08:26:17;;;;;;;20.30;4.78;;;;;;;0.40;94.15;100347.59;4860026;29;20136;-85
2021/12/09 08:28:42;;;;;;;16.80;4.80;;;;;;;0.46;94.49;100343.31;4860094;29;20405;-86
2021/12/09 08:31:08;;;;;;;17.88;6.20;;;;;;;0.48;94.61;100349.41;4860245;29;20027;-85
2021/12/09 08:33:34;;;;;;;14.70;5.15;;;;;;;0.52;94.37;100340.75;4872214;29;20041;-85
2021/12/09 08:35:59;;;;;;;10.73;4.70;;;;;;;0.56;94.38;100338.19;4857060;29;20120;-85
2021/12/09 08:38:25;;;;;;;12.57;5.45;;;;;;;0.66;94.01;100343.53;4856829;29;20497;-84
2021/12/09 08:40:53;;;;;;;11.60;4.53;;;;;;;0.68;93.94;100345.28;4856692;29;20038;-84
2021/12/09 08:43:22;;;;;;;15.85;5.25;;;;;;;0.73;93.74;100341.00;4872582;29;20086;-84
2021/12/09 08:45:51;;;;;;;11.57;4.70;;;;;;;0.76;94.26;100355.78;4857106;29;20049;-84
2021/12/09 08:48:16;;;;;;;13.25;4.55;;;;;;;0.83;94.18;100355.00;4858334;29;20041;-84
2021/12/09 08:50:44;;;;;;;14.27;4.90;;;;;;;0.84;94.23;100354.13;4857285;29;20430;-84
2021/12/09 08:53:13;;;;;;;12.35;4.68;;;;;;;0.86;94.37;100350.66;4841732;29;20448;-83
2021/12/09 08:55:40;;;;;;;10.60;5.07;;;;;;;0.89;94.24;100355.06;4858693;29;20057;-83
2021/12/09 08:58:07;;;;;;;16.48;5.53;;;;;;;0.93;94.02;100358.56;4857537;29;20140;-83
2021/12/09 09:00:34;;;;;;;16.42;4.82;;;;;;;1.00;94.17;100362.97;4858461;29;20043;-84
2021/12/09 09:03:00;;;;;;;11.98;4.40;;;;;;;1.04;94.02;100360.41;4857454;29;20038;-84
2021/12/09 09:05:27;;;;;;;14.15;5.38;;;;;;;1.07;93.95;100350.00;4842124;29;20032;-84
2021/12/09 09:07:53;;;;;;;13.57;5.45;;;;;;;1.10;93.73;100351.78;4857753;29;20041;-84
2021/12/09 09:10:22;;;;;;;10.43;4.53;;;;;;;1.16;93.65;100357.03;4842085;29;20093;-84
2021/12/09 09:12:48;;;;;;;12.48;5.82;;;;;;;1.22;93.09;100362.31;4857593;29;20072;-85
2021/12/09 09:15:17;;;;;;;18.33;5.38;;;;;;;1.25;94.11;100364.94;4857728;29;20086;-83
2021/12/09 09:17:42;;;;;;;12.60;4.80;;;;;;;1.29;93.56;100361.50;4842058;29;20105;-84
2021/12/09 09:20:10;;;;;;;17.80;5.18;;;;;;;1.33;93.74;100365.00;4857442;29;20127;-84
2021/12/09 09:22:38;;;;;;;13.32;5.00;;;;;;;1.40;93.17;100361.56;4856688;29;20140;-83
2021/12/09 09:25:09;;;;;;;13.07;5.22;;;;;;;1.46;92.93;100369.47;4873379;29;20196;-83
2021/12/09 09:27:34;;;;;;;;;;;;;;;1.50;93.05;100365.13;4894019;29;20040;-84
2021/12/09 09:30:00;;;;;;;12.57;4.18;;;;;;;1.51;92.46;100369.50;4895282;29;19918;-83
2021/12/09 09:32:26;;;;;;;12.45;4.38;;;;;;;1.55;92.93;100365.16;4891412;29;20162;-83
2021/12/09 09:34:54;;;;;;;13.50;4.45;;;;;;;1.58;93.20;100370.41;4859565;29;20066;-82
2021/12/09 09:37:20;;;;;;;14.05;5.32;;;;;;;1.60;93.36;100377.38;4844939;29;20481;-81
2021/12/09 09:39:47;;;;;;;16.27;6.50;;;;;;;1.62;93.27;100373.03;4861487;29;20061;-82
2021/12/09 09:44:54;;;;;;;19.83;6.40;;;;;;;1.67;93.46;100373.94;4860291;29;20386;-82
2021/12/09 09:47:22;;;;;;;14.88;4.78;;;;;;;1.77;92.53;100381.84;4859857;29;20033;-81
2021/12/09 09:49:48;;;;;;;11.35;5.05;;;;;;;1.73;92.56;100370.50;4875417;29;20044;-83
2021/12/09 09:52:15;;;;;;;15.00;4.80;;;;;;;1.79;92.41;100385.34;4860009;29;20050;-82
2021/12/09 09:54:41;;;;;;;20.42;5.93;;;;;;;1.80;92.99;100384.47;4860028;29;20044;-82
2021/12/09 09:57:09;;;;;;;20.08;6.18;;;;;;;1.82;93.01;100377.53;4845023;29;20117;-82
2021/12/09 09:59:35;;;;;;;20.27;5.88;;;;;;;1.85;92.63;100382.75;4862963;29;20033;-82
2021/12/09 10:02:03;;;;;;;11.45;5.80;;;;;;;1.84;93.29;100381.91;4880004;29;20037;-83
2021/12/09 10:04:37;;;;;;;12.52;5.22;;;;;;;1.87;92.67;100383.66;4878332;29;20029;-82
2021/12/09 10:07:04;;;;;;;19.55;5.65;;;;;;;1.92;92.79;100385.41;4847984;29;20045;-82
2021/12/09 10:09:30;;;;;;;15.27;5.47;;;;;;;1.93;92.49;100381.97;4862499;29;20056;-82
2021/12/09 10:11:56;;;;;;;15.15;5.65;;;;;;;1.99;93.04;100385.47;4877603;29;20069;-82
2021/12/09 10:14:27;;;;;;;17.75;5.47;;;;;;;2.02;92.51;100377.66;4862153;29;20060;-83
2021/12/09 10:17:07;;;;;;;;;;;;;;;2.04;92.48;100379.41;4877944;29;20037;-83
2021/12/09 10:19:38;;;;;;;13.02;5.05;;;;;;;2.06;92.95;100379.41;4861879;29;19976;-83
2021/12/09 10:22:09;;;;;;;10.98;5.18;;;;;;;2.09;93.25;100366.38;4877559;29;20045;-82
2021/12/09 10:24:36;;;;;;;14.33;4.67;;;;;;;2.11;92.92;100362.91;4862072;29;20096;-82
2021/12/09 10:27:02;;;;;;;17.05;5.55;;;;;;;2.14;92.44;100365.50;4846450;29;20101;-82
2021/12/09 10:29:35;;;;;;;20.88;6.28;;;;;;;2.17;92.65;100351.59;4861962;29;20108;-83
2021/12/09 10:32:06;;;;;;;14.20;5.80;;;;;;;2.21;93.14;100347.28;4862929;29;20059;-82
2021/12/09 10:34:37;;;;;;;11.82;4.72;;;;;;;2.26;92.67;100346.41;4877505;29;20127;-83
2021/12/09 10:37:11;;;;;;;12.43;5.90;;;;;;;2.33;92.60;100350.81;4878478;29;20049;-83
2021/12/09 10:39:43;;;;;;;13.50;5.93;;;;;;;2.38;92.90;100352.56;4861406;29;20061;-83
2021/12/09 10:42:16;;;;;;;16.33;5.43;;;;;;;2.39;91.98;100347.34;4876421;29;20139;-83
2021/12/09 10:44:55;;;;;;;11.75;5.65;;;;;;;2.45;92.09;100351.69;4861435;29;20512;-83
2021/12/09 10:50:35;;;;;;;14.63;5.45;;;;;;;2.49;92.45;100358.69;4876702;29;20045;-83
2021/12/09 10:53:30;;;;;;;11.20;5.80;;;;;;;2.53;91.74;100357.84;4876917;29;20186;-83
2021/12/09 10:55:51;;;;;;;10.90;4.90;;;;;;;2.57;92.06;100360.47;4876469;29;20052;-81
2021/12/09 10:58:25;;;;;;;12.70;5.35;;;;;;;2.57;92.09;100360.47;4878149;29;20053;-82
2021/12/09 11:00:53;;;;;;;14.55;5.78;;;;;;;2.56;92.77;100368.31;4877828;29;20045;-82
2021/12/09 11:03:37;;;;;;;15.73;5.60;;;;;;;2.59;92.02;100363.94;4876913;29;20089;-82
2021/12/09 11:06:15;;;;;;;10.45;4.68;;;;;;;2.64;92.05;100360.47;4876512;29;20181;-81
2021/12/09 11:08:44;;;;;;;18.85;5.28;;;;;;;2.63;92.09;100359.63;4876546;29;20037;-81
2021/12/09 11:11:32;;;;;;;9.27;4.63;;;;;;;2.70;91.40;100357.91;4878025;29;20437;-81
2021/12/09 11:14:03;;;;;;;10.55;6.40;;;;;;;2.69;91.87;100358.75;4877173;29;20037;-82
2021/12/09 11:16:55;;;;;;;10.48;6.15;;;;;;;2.70;92.79;100344.81;4876739;29;20036;-83
2021/12/09 11:22:05;;;;;;;12.05;5.43;;;;;;;2.75;92.21;100337.88;4877908;29;20396;-82
2021/12/09 11:24:36;;;;;;;9.77;4.60;;;;;;;2.80;92.05;100331.75;4876668;29;20124;-82
2021/12/09 11:27:07;;;;;;;;;;;;;;;2.94;91.84;100329.19;4861501;29;20041;-82
2021/12/09 11:29:43;;;;;;;10.47;4.73;;;;;;;2.88;91.41;100321.31;4876527;29;20018;-82
2021/12/09 11:35:02;;;;;;;16.83;5.60;;;;;;;2.89;91.36;100324.78;4859441;29;20038;-82
2021/12/09 11:40:00;;;;;;;10.30;5.10;;;;;;;2.92;91.18;100341.38;4858801;29;20042;-82
2021/12/09 11:42:33;;;;;;;13.35;6.15;;;;;;;2.89;91.54;100327.41;4859342;29;20128;-81
2021/12/09 11:44:59;;;;;;;15.80;5.78;;;;;;;2.94;91.95;100329.19;4843203;29;20510;-81
2021/12/09 11:47:24;;;;;;;8.77;5.03;;;;;;;2.97;91.80;100330.91;4857724;29;20148;-82
2021/12/09 11:49:51;;;;;;;14.98;5.93;;;;;;;3.02;91.32;100323.94;4842494;29;20131;-82
2021/12/09 11:52:20;;;;;;;10.70;6.00;;;;;;;3.04;91.58;100326.53;4857278;29;20441;-81